createdAt,value
2019-03-04T00:00:59.588Z,4.90
2019-03-04T00:03:26.966Z,5.00
2019-03-04T00:05:54.938Z,5.10
2019-03-04T00:08:22.487Z,5.10
2019-03-04T00:10:49.867Z,5.10
2019-03-04T00:13:17.256Z,5.20
2019-03-04T00:15:44.672Z,5.20
2019-03-04T00:18:12.068Z,5.20
2019-03-04T00:20:39.439Z,5.30
2019-03-04T00:23:06.858Z,5.30
2019-03-04T00:25:34.244Z,5.30
2019-03-04T00:28:01.647Z,5.30
2019-03-04T00:30:29.107Z,5.30
2019-03-04T00:32:56.506Z,5.40
2019-03-04T00:35:24.901Z,5.40
2019-03-04T00:37:52.407Z,5.50
2019-03-04T00:40:19.783Z,5.50
2019-03-04T00:42:47.165Z,5.60
2019-03-04T00:45:14.586Z,5.70
2019-03-04T00:47:41.966Z,5.80
2019-03-04T00:50:09.467Z,5.80
2019-03-04T00:52:36.999Z,5.90
2019-03-04T00:55:24.070Z,5.90
2019-03-04T00:57:52.183Z,6.00
2019-03-04T01:00:21.119Z,6.00
2019-03-04T01:02:48.513Z,6.10
2019-03-04T01:05:16.170Z,6.20
2019-03-04T01:07:43.594Z,6.20
2019-03-04T01:10:11.733Z,6.20
2019-03-04T01:12:39.456Z,6.30
2019-03-04T01:15:09.368Z,6.30
2019-03-04T01:17:36.744Z,6.30
2019-03-04T01:20:04.901Z,6.30
2019-03-04T01:22:32.279Z,6.40
2019-03-04T01:24:59.665Z,6.40
2019-03-04T01:27:27.127Z,6.40
2019-03-04T01:29:54.504Z,6.50
2019-03-04T01:32:21.889Z,6.50
2019-03-04T01:34:49.358Z,6.50
2019-03-04T01:37:16.726Z,6.50
2019-03-04T01:39:44.112Z,6.50
2019-03-04T01:42:11.648Z,6.50
2019-03-04T01:44:39.034Z,6.50
2019-03-04T01:47:06.410Z,6.50
2019-03-04T01:49:33.894Z,6.50
2019-03-04T01:52:01.279Z,6.60
2019-03-04T01:54:28.658Z,6.60
2019-03-04T01:56:56.104Z,6.50
2019-03-04T01:59:24.167Z,6.60
2019-03-04T02:01:51.545Z,6.60
2019-03-04T02:04:18.990Z,6.60
2019-03-04T02:06:46.370Z,6.60
2019-03-04T02:09:13.838Z,6.60
2019-03-04T02:11:41.313Z,6.60
2019-03-04T02:14:08.692Z,6.70
2019-03-04T02:16:36.063Z,6.80
2019-03-04T02:19:03.493Z,6.70
2019-03-04T02:21:30.882Z,6.70
2019-03-04T02:24:17.274Z,6.70
2019-03-04T02:26:44.652Z,6.70
2019-03-04T02:29:12.046Z,6.60
2019-03-04T02:31:39.562Z,6.60
2019-03-04T02:34:06.936Z,6.60
2019-03-04T02:36:34.318Z,6.60
2019-03-04T02:39:01.755Z,6.70
2019-03-04T02:41:29.126Z,6.60
2019-03-04T02:43:56.501Z,6.70
2019-03-04T02:46:24.280Z,6.60
2019-03-04T02:48:51.659Z,6.70
2019-03-04T02:51:19.152Z,6.70
2019-03-04T02:53:46.985Z,6.70
2019-03-04T02:56:15.107Z,6.70
2019-03-04T02:58:42.496Z,6.70
2019-03-04T03:01:09.880Z,6.80
2019-03-04T03:03:37.295Z,6.70
2019-03-04T03:06:04.670Z,6.70
2019-03-04T03:08:32.046Z,6.60
2019-03-04T03:10:59.579Z,6.60
2019-03-04T03:13:26.963Z,6.60
2019-03-04T03:15:54.347Z,6.50
2019-03-04T03:18:21.832Z,6.50
2019-03-04T03:20:49.216Z,6.50
2019-03-04T03:23:16.607Z,6.50
2019-03-04T03:25:44.026Z,6.40
2019-03-04T03:28:11.403Z,6.40
2019-03-04T03:30:38.811Z,6.40
2019-03-04T03:33:06.779Z,6.40
2019-03-04T03:35:34.179Z,6.30
2019-03-04T03:38:01.569Z,6.30
2019-03-04T03:40:29.270Z,6.30
2019-03-04T03:42:56.665Z,6.30
2019-03-04T03:45:24.038Z,6.30
2019-03-04T03:47:51.460Z,6.20
2019-03-04T03:50:18.853Z,6.20
2019-03-04T03:52:46.281Z,6.20
2019-03-04T03:55:14.995Z,6.10
2019-03-04T03:57:42.831Z,6.10
2019-03-04T04:00:13.083Z,6.10
2019-03-04T04:02:40.534Z,6.10
2019-03-04T04:05:08.125Z,6.00
2019-03-04T04:07:35.506Z,5.90
2019-03-04T04:10:03.440Z,6.00
2019-03-04T04:12:30.883Z,6.00
2019-03-04T04:14:58.277Z,6.00
2019-03-04T04:17:25.640Z,6.00
2019-03-04T04:19:53.237Z,5.90
2019-03-04T04:22:20.706Z,5.90
2019-03-04T04:24:48.094Z,5.80
2019-03-04T04:27:15.543Z,5.80
2019-03-04T04:29:42.941Z,5.80
2019-03-04T04:32:10.311Z,5.80
2019-03-04T04:34:37.959Z,5.70
2019-03-04T04:37:05.327Z,5.80
2019-03-04T04:39:32.720Z,5.80
2019-03-04T04:42:00.639Z,5.80
2019-03-04T04:44:28.021Z,5.80
2019-03-04T04:46:59.783Z,5.80
2019-03-04T04:49:29.314Z,5.90
2019-03-04T04:51:56.707Z,5.90
2019-03-04T04:54:24.187Z,5.80
2019-03-04T04:56:51.615Z,5.80
2019-03-04T04:59:19.458Z,5.70
2019-03-04T05:01:46.842Z,5.70
2019-03-04T05:04:14.263Z,5.70
2019-03-04T05:06:41.653Z,5.60
2019-03-04T05:09:09.028Z,5.60
2019-03-04T05:11:36.574Z,5.70
2019-03-04T05:14:03.946Z,5.70
2019-03-04T05:16:31.330Z,5.70
2019-03-04T05:18:58.773Z,5.70
2019-03-04T05:21:26.159Z,5.70
2019-03-04T05:23:53.538Z,5.60
2019-03-04T05:26:20.953Z,5.60
2019-03-04T05:28:48.335Z,5.60
2019-03-04T05:31:15.734Z,5.60
2019-03-04T05:33:43.270Z,5.50
2019-03-04T05:36:10.661Z,5.60
2019-03-04T05:38:38.058Z,5.60
2019-03-04T05:41:05.470Z,5.60
2019-03-04T05:43:32.860Z,5.60
2019-03-04T05:46:00.271Z,5.60
2019-03-04T05:48:27.846Z,5.70
2019-03-04T05:50:55.248Z,5.80
2019-03-04T05:53:22.645Z,5.90
2019-03-04T05:55:50.107Z,5.90
2019-03-04T05:58:17.826Z,5.90
2019-03-04T06:00:46.119Z,5.90
2019-03-04T06:03:14.217Z,5.90
2019-03-04T06:06:01.175Z,5.90
2019-03-04T06:08:28.725Z,6.00
2019-03-04T06:10:56.108Z,6.00
2019-03-04T06:13:23.522Z,6.00
2019-03-04T06:15:50.970Z,5.90
2019-03-04T06:18:18.418Z,5.90
2019-03-04T06:20:45.810Z,5.90
2019-03-04T06:23:13.330Z,5.90
2019-03-04T06:25:40.710Z,5.90
2019-03-04T06:28:08.093Z,5.90
2019-03-04T06:30:35.524Z,5.90
2019-03-04T06:33:02.920Z,6.00
2019-03-04T06:35:30.315Z,6.10
2019-03-04T06:37:57.738Z,6.10
2019-03-04T06:40:25.222Z,6.20
2019-03-04T06:42:52.624Z,6.40
2019-03-04T06:45:20.098Z,6.60
2019-03-04T06:47:47.486Z,6.80
2019-03-04T06:50:46.435Z,6.90
2019-03-04T06:53:19.608Z,7.00
2019-03-04T06:56:16.174Z,7.30
2019-03-04T06:58:45.751Z,7.40
2019-03-04T07:01:24.462Z,7.60
2019-03-04T07:04:38.211Z,7.70
2019-03-04T07:07:06.011Z,7.80
2019-03-04T07:09:33.525Z,7.90
2019-03-04T07:12:00.922Z,8.00
2019-03-04T07:14:28.364Z,8.00
2019-03-04T07:16:55.748Z,8.10
2019-03-04T07:19:24.502Z,8.10
2019-03-04T07:21:52.038Z,8.10
2019-03-04T07:24:19.441Z,8.20
2019-03-04T07:26:46.902Z,8.20
2019-03-04T07:29:15.095Z,8.30
2019-03-04T07:31:42.601Z,8.40
2019-03-04T07:34:09.989Z,8.30
2019-03-04T07:36:37.458Z,8.40
2019-03-04T07:39:15.100Z,8.50
2019-03-04T07:41:44.406Z,8.50
2019-03-04T07:44:11.795Z,8.50
2019-03-04T07:46:39.187Z,8.60
2019-03-04T07:49:06.622Z,8.70
2019-03-04T07:51:34.212Z,8.80
2019-03-04T07:54:01.600Z,8.70
2019-03-04T07:56:29.130Z,8.80
2019-03-04T07:58:56.523Z,8.90
2019-03-04T08:01:23.921Z,8.90
2019-03-04T08:03:51.370Z,8.90
2019-03-04T08:06:18.788Z,8.90
2019-03-04T08:09:30.593Z,9.00
2019-03-04T08:12:54.918Z,9.00
2019-03-04T08:15:22.346Z,9.10
2019-03-04T08:17:49.724Z,9.10
2019-03-04T08:20:17.117Z,9.20
2019-03-04T08:22:44.625Z,9.30
2019-03-04T08:25:16.081Z,9.30
2019-03-04T08:27:43.482Z,9.30
2019-03-04T08:30:19.856Z,9.30
2019-03-04T08:32:47.226Z,9.40
2019-03-04T08:35:14.647Z,9.40
2019-03-04T08:37:42.314Z,9.50
2019-03-04T08:40:10.799Z,9.60
2019-03-04T08:42:38.255Z,9.70
2019-03-04T08:45:06.576Z,9.80
2019-03-04T08:47:34.050Z,9.80
2019-03-04T08:50:01.528Z,9.90
2019-03-04T08:52:28.994Z,9.80
2019-03-04T08:54:57.637Z,9.70
2019-03-04T08:57:25.272Z,9.70
2019-03-04T08:59:52.647Z,9.70
2019-03-04T09:02:20.050Z,9.70
2019-03-04T09:04:47.541Z,9.80
2019-03-04T09:07:15.151Z,10.00
2019-03-04T09:09:42.650Z,10.10
2019-03-04T09:12:10.110Z,10.20
2019-03-04T09:14:37.493Z,10.30
2019-03-04T09:17:04.882Z,10.50
2019-03-04T09:19:32.365Z,10.60
2019-03-04T09:21:59.739Z,10.70
2019-03-04T09:24:27.135Z,10.70
2019-03-04T09:26:54.636Z,10.80
2019-03-04T09:29:22.038Z,10.80
2019-03-04T09:31:49.431Z,10.80
2019-03-04T09:34:16.910Z,10.80
2019-03-04T09:36:44.298Z,10.80
2019-03-04T09:39:14.382Z,10.80
2019-03-04T09:41:42.137Z,10.80
2019-03-04T09:44:09.527Z,10.90
2019-03-04T09:46:36.915Z,10.90
2019-03-04T09:49:04.418Z,11.00
2019-03-04T09:51:31.821Z,11.10
2019-03-04T09:53:59.211Z,11.30
2019-03-04T09:56:26.723Z,11.40
2019-03-04T09:58:54.093Z,11.50
2019-03-04T10:01:35.399Z,11.50
2019-03-04T10:04:44.586Z,11.50
2019-03-04T10:07:37.687Z,11.60
2019-03-04T10:10:56.546Z,11.60
2019-03-04T10:14:15.506Z,11.60
2019-03-04T10:17:11.802Z,11.70
2019-03-04T10:20:14.402Z,11.80
2019-03-04T10:23:25.666Z,11.90
2019-03-04T10:26:33.306Z,12.00
2019-03-04T10:29:54.082Z,12.10
2019-03-04T10:32:50.730Z,12.20
2019-03-04T10:35:29.842Z,12.30
2019-03-04T10:38:51.586Z,12.50
2019-03-04T10:42:14.896Z,12.60
2019-03-04T10:45:24.743Z,12.60
2019-03-04T10:47:52.130Z,12.70
2019-03-04T10:50:19.524Z,12.90
2019-03-04T10:52:47.015Z,13.00
2019-03-04T10:55:14.806Z,13.20
2019-03-04T10:57:42.183Z,13.30
2019-03-04T11:00:17.195Z,13.40
2019-03-04T11:02:44.573Z,13.60
2019-03-04T11:05:12.365Z,13.60
2019-03-04T11:07:39.795Z,13.60
2019-03-04T11:10:08.258Z,13.60
2019-03-04T11:12:35.712Z,13.70
2019-03-04T11:15:04.863Z,13.80
2019-03-04T11:17:32.151Z,13.90
2019-03-04T11:19:59.533Z,14.00
2019-03-04T11:22:27.062Z,14.10
2019-03-04T11:24:54.469Z,14.20
2019-03-04T11:27:21.850Z,14.40
2019-03-04T11:29:49.278Z,14.40
2019-03-04T11:32:16.662Z,14.50
2019-03-04T11:34:44.074Z,14.50
2019-03-04T11:37:11.506Z,14.60
2019-03-04T11:39:53.599Z,14.70
2019-03-04T11:42:21.191Z,14.80
2019-03-04T11:45:09.419Z,14.80
2019-03-04T11:47:37.213Z,15.10
2019-03-04T11:50:07.677Z,15.30
2019-03-04T11:52:35.058Z,15.40
2019-03-04T11:55:02.501Z,15.50
2019-03-04T11:57:29.936Z,15.70
2019-03-04T11:59:57.354Z,15.70
2019-03-04T12:02:27.348Z,15.60
2019-03-04T12:04:54.742Z,15.90
2019-03-04T12:07:22.129Z,15.90
2019-03-04T12:09:49.554Z,16.10
2019-03-04T12:12:17.479Z,16.20
2019-03-04T12:14:44.883Z,16.30
2019-03-04T12:17:12.425Z,16.50
2019-03-04T12:19:39.806Z,16.70
2019-03-04T12:22:07.195Z,16.80
2019-03-04T12:24:34.632Z,16.80
2019-03-04T12:27:02.010Z,16.80
2019-03-04T12:29:29.453Z,16.80
2019-03-04T12:32:03.802Z,16.90
2019-03-04T12:34:31.204Z,16.90
2019-03-04T12:36:58.589Z,17.00
2019-03-04T12:39:26.113Z,17.10
2019-03-04T12:41:53.520Z,17.30
2019-03-04T12:44:20.935Z,17.50
2019-03-04T12:46:48.416Z,17.50
2019-03-04T12:49:16.351Z,17.60
2019-03-04T12:51:43.746Z,17.70
2019-03-04T12:54:11.247Z,17.80
2019-03-04T12:56:38.693Z,17.80
2019-03-04T12:59:06.023Z,17.90
2019-03-04T13:01:33.455Z,17.90
2019-03-04T13:04:00.851Z,18.10
2019-03-04T13:06:28.242Z,18.10
2019-03-04T13:08:55.770Z,18.10
2019-03-04T13:11:23.162Z,18.10
2019-03-04T13:13:50.542Z,17.90
2019-03-04T13:16:17.987Z,17.70
2019-03-04T13:18:45.373Z,17.50
2019-03-04T13:21:12.756Z,16.80
2019-03-04T13:23:40.182Z,16.60
2019-03-04T13:26:07.580Z,16.30
2019-03-04T13:28:34.959Z,16.00
2019-03-04T13:31:02.786Z,15.90
2019-03-04T13:33:30.158Z,15.60
2019-03-04T13:35:57.550Z,15.40
2019-03-04T13:38:24.986Z,15.40
2019-03-04T13:40:52.446Z,15.10
2019-03-04T13:43:19.826Z,15.10
2019-03-04T13:45:47.240Z,14.80
2019-03-04T13:48:14.948Z,14.70
2019-03-04T13:50:42.338Z,14.60
2019-03-04T13:53:09.797Z,14.50
2019-03-04T13:55:37.209Z,13.90
2019-03-04T13:58:04.673Z,13.80
2019-03-04T14:00:32.674Z,13.60
2019-03-04T14:03:00.086Z,13.40
2019-03-04T14:05:27.478Z,13.10
2019-03-04T14:07:54.914Z,13.00
2019-03-04T14:10:22.551Z,12.60
2019-03-04T14:12:49.943Z,12.40
2019-03-04T14:15:23.532Z,12.30
2019-03-04T14:17:50.918Z,12.00
2019-03-04T14:20:18.302Z,11.70
2019-03-04T14:22:56.893Z,11.60
2019-03-04T14:25:14.921Z,11.50
2019-03-04T14:27:42.311Z,11.40
2019-03-04T14:30:12.748Z,11.30
2019-03-04T14:32:40.269Z,11.10
2019-03-04T14:35:07.801Z,11.10
2019-03-04T14:37:35.263Z,11.10
2019-03-04T14:40:03.233Z,11.00
2019-03-04T14:42:30.642Z,10.70
2019-03-04T14:44:58.173Z,10.70
2019-03-04T14:47:25.906Z,10.50
2019-03-04T14:49:53.470Z,10.50
2019-03-04T14:52:20.887Z,10.30
2019-03-04T14:54:48.290Z,10.20
2019-03-04T14:57:15.687Z,10.10
2019-03-04T14:59:43.122Z,10.00
2019-03-04T15:02:10.519Z,10.00
2019-03-04T15:04:37.906Z,9.80
2019-03-04T15:07:05.343Z,9.80
2019-03-04T15:09:32.730Z,9.80
2019-03-04T15:12:00.116Z,9.70
2019-03-04T15:14:27.610Z,9.50
2019-03-04T15:17:02.949Z,9.50
2019-03-04T15:19:24.272Z,9.30
2019-03-04T15:21:51.810Z,9.20
2019-03-04T15:24:23.258Z,8.90
2019-03-04T15:26:50.648Z,8.80
2019-03-04T15:29:18.212Z,8.80
2019-03-04T15:31:45.622Z,8.70
2019-03-04T15:34:13.010Z,8.50
2019-03-04T15:36:40.474Z,8.30
2019-03-04T15:39:22.532Z,8.20
2019-03-04T15:41:44.053Z,8.10
2019-03-04T15:44:11.461Z,8.00
2019-03-04T15:46:39.297Z,8.00
2019-03-04T15:49:06.951Z,7.90
2019-03-04T15:51:34.351Z,7.90
2019-03-04T15:54:01.741Z,7.90
2019-03-04T15:56:29.269Z,7.90
2019-03-04T15:58:56.658Z,7.90
2019-03-04T16:01:24.064Z,7.80
2019-03-04T16:03:51.498Z,7.80
2019-03-04T16:06:18.894Z,7.80
2019-03-04T16:08:46.285Z,7.70
2019-03-04T16:11:13.831Z,7.60
2019-03-04T16:13:41.241Z,7.50
2019-03-04T16:16:08.642Z,7.40
2019-03-04T16:18:36.233Z,7.40
2019-03-04T16:21:03.648Z,7.40
2019-03-04T16:23:31.026Z,7.20
2019-03-04T16:26:03.628Z,7.30
2019-03-04T16:28:31.010Z,7.30
2019-03-04T16:30:58.407Z,7.20
2019-03-04T16:33:26.007Z,7.20
2019-03-04T16:35:53.407Z,7.10
2019-03-04T16:38:20.791Z,7.00
2019-03-04T16:40:48.212Z,6.90
2019-03-04T16:43:15.615Z,6.90
2019-03-04T16:45:43.114Z,7.00
2019-03-04T16:48:10.559Z,7.10
2019-03-04T16:50:38.299Z,7.10
2019-03-04T16:53:05.835Z,7.10
2019-03-04T16:55:33.379Z,7.10
2019-03-04T16:58:00.805Z,7.30
2019-03-04T17:00:28.207Z,7.20
2019-03-04T17:02:55.692Z,7.20
2019-03-04T17:05:23.089Z,7.20
2019-03-04T17:07:51.001Z,7.30
2019-03-04T17:10:18.861Z,7.30
2019-03-04T17:12:46.255Z,7.20
2019-03-04T17:15:16.296Z,7.40
2019-03-04T17:17:44.015Z,7.40
2019-03-04T17:20:11.659Z,7.40
2019-03-04T17:22:39.195Z,7.50
2019-03-04T17:25:07.431Z,7.50
2019-03-04T17:27:35.034Z,7.60
2019-03-04T17:30:03.088Z,7.50
2019-03-04T17:32:51.955Z,7.60
2019-03-04T17:35:19.616Z,7.60
2019-03-04T17:37:47.023Z,7.60
2019-03-04T17:40:15.287Z,7.40
2019-03-04T17:42:42.695Z,7.50
2019-03-04T17:45:11.898Z,7.50
2019-03-04T17:47:39.469Z,7.60
2019-03-04T17:50:09.089Z,7.80
2019-03-04T17:52:37.391Z,8.00
2019-03-04T17:55:06.078Z,8.10
2019-03-04T17:57:33.474Z,8.10
2019-03-04T18:00:00.898Z,8.20
2019-03-04T18:02:28.529Z,8.20
2019-03-04T18:04:55.915Z,8.20
2019-03-04T18:07:26.848Z,8.30
2019-03-04T18:09:54.367Z,8.40
2019-03-04T18:12:21.814Z,8.50
2019-03-04T18:14:49.213Z,8.40
2019-03-04T18:17:16.655Z,8.30
2019-03-04T18:19:44.058Z,8.10
2019-03-04T18:22:11.483Z,8.00
2019-03-04T18:24:38.903Z,7.80
2019-03-04T18:27:13.306Z,7.70
2019-03-04T18:29:51.381Z,7.60
2019-03-04T18:32:44.336Z,7.50
2019-03-04T18:36:00.043Z,7.50
2019-03-04T18:39:00.414Z,7.40
2019-03-04T18:42:00.097Z,7.40
2019-03-04T18:44:45.384Z,7.30
2019-03-04T18:48:06.993Z,7.30
2019-03-04T18:50:34.394Z,7.20
2019-03-04T18:53:01.801Z,7.20
2019-03-04T18:55:30.780Z,7.20
2019-03-04T18:57:58.191Z,7.20
2019-03-04T19:00:26.488Z,7.20
2019-03-04T19:02:53.867Z,7.10
2019-03-04T19:05:21.410Z,7.10
2019-03-04T19:07:48.807Z,7.10
2019-03-04T19:10:16.254Z,7.00
2019-03-04T19:12:43.638Z,7.00
2019-03-04T19:15:11.234Z,7.00
2019-03-04T19:17:38.659Z,7.00
2019-03-04T19:20:08.797Z,7.00
2019-03-04T19:22:36.179Z,7.00
2019-03-04T19:25:03.984Z,6.90
2019-03-04T19:27:31.375Z,7.00
2019-03-04T19:29:58.762Z,6.90
2019-03-04T19:32:26.498Z,6.90
2019-03-04T19:34:54.036Z,7.00
2019-03-04T19:37:22.192Z,6.90
2019-03-04T19:39:49.627Z,6.90
2019-03-04T19:42:17.013Z,6.80
2019-03-04T19:44:44.399Z,6.80
2019-03-04T19:47:11.823Z,6.70
2019-03-04T19:49:39.228Z,6.70
2019-03-04T19:52:06.648Z,6.60
2019-03-04T19:54:34.112Z,6.70
2019-03-04T19:57:01.496Z,6.60
2019-03-04T19:59:28.918Z,6.70
2019-03-04T20:01:56.556Z,6.70
2019-03-04T20:04:23.954Z,6.70
2019-03-04T20:06:51.338Z,6.70
2019-03-04T20:09:19.408Z,6.70
2019-03-04T20:11:46.832Z,6.80
2019-03-04T20:14:14.232Z,6.70
2019-03-04T20:16:41.930Z,6.70
2019-03-04T20:19:09.325Z,6.70
2019-03-04T20:21:36.873Z,6.80
2019-03-04T20:24:04.343Z,6.80
2019-03-04T20:26:31.734Z,6.70
2019-03-04T20:28:59.245Z,6.70
2019-03-04T20:31:26.910Z,6.70
2019-03-04T20:33:54.389Z,6.70
2019-03-04T20:36:22.719Z,6.70
2019-03-04T20:38:50.214Z,6.70
2019-03-04T20:41:17.596Z,6.70
2019-03-04T20:43:45.053Z,6.80
2019-03-04T20:46:12.535Z,6.70
2019-03-04T20:48:39.997Z,6.70
2019-03-04T20:51:07.421Z,6.60
2019-03-04T20:53:35.202Z,6.60
2019-03-04T20:56:02.684Z,6.60
2019-03-04T20:58:30.074Z,6.60
2019-03-04T21:00:57.744Z,6.60
2019-03-04T21:03:34.357Z,6.70
2019-03-04T21:05:54.362Z,6.70
2019-03-04T21:08:21.982Z,6.70
2019-03-04T21:10:51.106Z,6.80
2019-03-04T21:13:22.209Z,6.70
2019-03-04T21:15:49.858Z,6.70
2019-03-04T21:18:17.533Z,6.80
2019-03-04T21:20:45.242Z,6.70
2019-03-04T21:23:12.886Z,6.70
2019-03-04T21:25:52.086Z,6.80
2019-03-04T21:28:24.069Z,6.70
2019-03-04T21:31:26.378Z,6.70
2019-03-04T21:34:32.886Z,6.70
2019-03-04T21:37:31.232Z,6.70
2019-03-04T21:40:02.908Z,6.70
2019-03-04T21:42:37.474Z,6.70
2019-03-04T21:45:29.993Z,6.70
2019-03-04T21:48:05.209Z,6.60
2019-03-04T21:50:49.624Z,6.60
2019-03-04T21:53:25.601Z,6.60
2019-03-04T21:56:03.367Z,6.60
2019-03-04T21:58:31.556Z,6.60
2019-03-04T22:01:03.564Z,6.60
2019-03-04T22:03:33.529Z,6.50
2019-03-04T22:06:01.117Z,6.40
2019-03-04T22:08:28.505Z,6.30
2019-03-04T22:10:55.968Z,6.40
2019-03-04T22:13:23.364Z,6.40
2019-03-04T22:15:50.767Z,6.40
2019-03-04T22:18:18.514Z,6.40
2019-03-04T22:20:45.900Z,6.30
2019-03-04T22:23:13.320Z,6.40
2019-03-04T22:25:40.806Z,6.40
2019-03-04T22:28:08.214Z,6.40
2019-03-04T22:30:35.600Z,6.40
2019-03-04T22:33:03.064Z,6.40
2019-03-04T22:35:32.014Z,6.40
2019-03-04T22:37:59.405Z,6.40
2019-03-04T22:40:26.969Z,6.40
2019-03-04T22:42:54.313Z,6.40
2019-03-04T22:45:21.701Z,6.40
2019-03-04T22:47:49.399Z,6.40
2019-03-04T22:50:17.407Z,6.40
2019-03-04T22:52:44.818Z,6.30
2019-03-04T22:55:21.371Z,6.30
2019-03-04T22:57:48.762Z,6.30
2019-03-04T23:01:40.529Z,6.30
2019-03-04T23:04:22.044Z,6.30
2019-03-04T23:07:16.626Z,6.30
2019-03-04T23:09:56.805Z,6.20
2019-03-04T23:12:39.574Z,6.20
2019-03-04T23:15:09.607Z,6.20
2019-03-04T23:17:36.994Z,6.20
2019-03-04T23:20:04.921Z,6.10
2019-03-04T23:22:32.326Z,6.20
2019-03-04T23:24:59.716Z,6.10
2019-03-04T23:27:27.166Z,6.10
2019-03-04T23:29:54.542Z,6.10
2019-03-04T23:32:21.937Z,6.10
2019-03-04T23:34:49.390Z,6.10
2019-03-04T23:37:17.346Z,6.10
2019-03-04T23:39:44.673Z,6.10
2019-03-04T23:42:12.191Z,6.10
2019-03-04T23:44:39.590Z,6.10
2019-03-04T23:47:06.967Z,6.10
2019-03-04T23:49:34.418Z,6.00
2019-03-04T23:52:01.805Z,5.90
2019-03-04T23:54:29.170Z,5.70
2019-03-04T23:56:56.658Z,5.70
2019-03-04T23:59:24.038Z,5.50
